sensor_id;sensor_type;location;lat;lon;timestamp;P1;durP1;ratioP1;P2;durP2;ratioP2
46721;SDS011;32455;43.430;23.136;2023-05-07T00:01:36;7.55;;;6.03;;
46721;SDS011;32455;43.430;23.136;2023-05-07T00:04:22;9.95;;;7.75;;
46721;SDS011;32455;43.430;23.136;2023-05-07T00:07:07;12.23;;;8.77;;
46721;SDS011;32455;43.430;23.136;2023-05-07T00:09:53;12.32;;;8.18;;
46721;SDS011;32455;43.430;23.136;2023-05-07T00:12:40;14.98;;;8.07;;
46721;SDS011;32455;43.430;23.136;2023-05-07T00:15:25;10.80;;;7.20;;
46721;SDS011;32455;43.430;23.136;2023-05-07T00:18:11;8.85;;;6.57;;
46721;SDS011;32455;43.430;23.136;2023-05-07T00:20:56;8.43;;;6.10;;
46721;SDS011;32455;43.430;23.136;2023-05-07T00:23:42;8.43;;;6.15;;
46721;SDS011;32455;43.430;23.136;2023-05-07T00:26:27;6.80;;;6.00;;
46721;SDS011;32455;43.430;23.136;2023-05-07T00:29:13;9.27;;;6.40;;
46721;SDS011;32455;43.430;23.136;2023-05-07T00:31:59;9.45;;;6.05;;
46721;SDS011;32455;43.430;23.136;2023-05-07T00:34:44;8.07;;;6.28;;
46721;SDS011;32455;43.430;23.136;2023-05-07T00:37:30;8.07;;;6.38;;
46721;SDS011;32455;43.430;23.136;2023-05-07T00:40:16;8.63;;;6.00;;
46721;SDS011;32455;43.430;23.136;2023-05-07T00:43:01;10.40;;;6.65;;
46721;SDS011;32455;43.430;23.136;2023-05-07T00:45:47;13.20;;;7.72;;
46721;SDS011;32455;43.430;23.136;2023-05-07T00:48:33;9.25;;;6.63;;
46721;SDS011;32455;43.430;23.136;2023-05-07T00:51:18;8.43;;;6.50;;
46721;SDS011;32455;43.430;23.136;2023-05-07T00:54:04;8.73;;;6.03;;
46721;SDS011;32455;43.430;23.136;2023-05-07T00:56:50;10.60;;;5.43;;
46721;SDS011;32455;43.430;23.136;2023-05-07T00:59:36;11.18;;;6.32;;
46721;SDS011;32455;43.430;23.136;2023-05-07T01:02:23;10.77;;;6.22;;
46721;SDS011;32455;43.430;23.136;2023-05-07T01:05:09;6.38;;;5.43;;
46721;SDS011;32455;43.430;23.136;2023-05-07T01:07:57;8.00;;;5.72;;
46721;SDS011;32455;43.430;23.136;2023-05-07T01:10:43;6.75;;;5.15;;
46721;SDS011;32455;43.430;23.136;2023-05-07T01:13:30;5.68;;;5.03;;
46721;SDS011;32455;43.430;23.136;2023-05-07T01:16:16;8.23;;;5.70;;
46721;SDS011;32455;43.430;23.136;2023-05-07T01:19:01;6.28;;;5.68;;
46721;SDS011;32455;43.430;23.136;2023-05-07T01:21:47;6.35;;;5.32;;
46721;SDS011;32455;43.430;23.136;2023-05-07T01:24:33;8.48;;;6.13;;
46721;SDS011;32455;43.430;23.136;2023-05-07T01:27:21;10.80;;;4.90;;
46721;SDS011;32455;43.430;23.136;2023-05-07T01:30:08;5.60;;;5.10;;
46721;SDS011;32455;43.430;23.136;2023-05-07T01:33:15;7.05;;;5.05;;
46721;SDS011;32455;43.430;23.136;2023-05-07T01:36:02;6.05;;;5.30;;
46721;SDS011;32455;43.430;23.136;2023-05-07T01:38:51;7.93;;;5.53;;
46721;SDS011;32455;43.430;23.136;2023-05-07T01:41:36;6.93;;;5.85;;
46721;SDS011;32455;43.430;23.136;2023-05-07T01:44:22;6.00;;;5.05;;
46721;SDS011;32455;43.430;23.136;2023-05-07T01:47:09;6.97;;;4.70;;
46721;SDS011;32455;43.430;23.136;2023-05-07T01:49:55;6.18;;;5.57;;
46721;SDS011;32455;43.430;23.136;2023-05-07T01:52:41;8.32;;;5.13;;
46721;SDS011;32455;43.430;23.136;2023-05-07T01:55:26;7.90;;;4.72;;
46721;SDS011;32455;43.430;23.136;2023-05-07T01:58:12;6.22;;;4.57;;
46721;SDS011;32455;43.430;23.136;2023-05-07T02:00:57;6.68;;;5.10;;
46721;SDS011;32455;43.430;23.136;2023-05-07T02:03:41;6.72;;;4.88;;
46721;SDS011;32455;43.430;23.136;2023-05-07T02:06:27;6.38;;;4.60;;
46721;SDS011;32455;43.430;23.136;2023-05-07T02:09:13;8.00;;;5.25;;
46721;SDS011;32455;43.430;23.136;2023-05-07T02:12:00;8.38;;;5.20;;
46721;SDS011;32455;43.430;23.136;2023-05-07T02:14:46;7.10;;;5.28;;
46721;SDS011;32455;43.430;23.136;2023-05-07T02:17:31;4.68;;;4.18;;
46721;SDS011;32455;43.430;23.136;2023-05-07T02:20:17;5.53;;;4.90;;
46721;SDS011;32455;43.430;23.136;2023-05-07T02:23:03;6.88;;;5.03;;
46721;SDS011;32455;43.430;23.136;2023-05-07T02:25:48;6.45;;;4.88;;
46721;SDS011;32455;43.430;23.136;2023-05-07T02:28:34;7.13;;;5.32;;
46721;SDS011;32455;43.430;23.136;2023-05-07T02:31:22;7.75;;;5.55;;
46721;SDS011;32455;43.430;23.136;2023-05-07T02:34:08;7.45;;;5.45;;
46721;SDS011;32455;43.430;23.136;2023-05-07T02:36:53;8.18;;;5.63;;
46721;SDS011;32455;43.430;23.136;2023-05-07T02:39:38;6.45;;;5.07;;
46721;SDS011;32455;43.430;23.136;2023-05-07T02:42:24;6.50;;;5.30;;
46721;SDS011;32455;43.430;23.136;2023-05-07T02:45:10;7.25;;;5.38;;
46721;SDS011;32455;43.430;23.136;2023-05-07T02:47:56;6.15;;;5.20;;
46721;SDS011;32455;43.430;23.136;2023-05-07T02:50:41;8.55;;;5.38;;
46721;SDS011;32455;43.430;23.136;2023-05-07T02:53:27;5.90;;;4.80;;
46721;SDS011;32455;43.430;23.136;2023-05-07T02:56:12;6.40;;;5.40;;
46721;SDS011;32455;43.430;23.136;2023-05-07T02:58:58;6.20;;;5.60;;
46721;SDS011;32455;43.430;23.136;2023-05-07T03:01:44;8.93;;;5.90;;
46721;SDS011;32455;43.430;23.136;2023-05-07T03:04:29;7.43;;;5.95;;
46721;SDS011;32455;43.430;23.136;2023-05-07T03:07:15;6.28;;;5.38;;
46721;SDS011;32455;43.430;23.136;2023-05-07T03:10:00;6.07;;;5.40;;
46721;SDS011;32455;43.430;23.136;2023-05-07T03:12:46;7.30;;;5.47;;
46721;SDS011;32455;43.430;23.136;2023-05-07T03:15:31;10.32;;;6.20;;
46721;SDS011;32455;43.430;23.136;2023-05-07T03:18:16;7.65;;;5.72;;
46721;SDS011;32455;43.430;23.136;2023-05-07T03:21:02;8.13;;;5.95;;
46721;SDS011;32455;43.430;23.136;2023-05-07T03:23:47;8.48;;;6.75;;
46721;SDS011;32455;43.430;23.136;2023-05-07T03:26:32;9.45;;;6.47;;
46721;SDS011;32455;43.430;23.136;2023-05-07T03:29:18;11.70;;;6.03;;
46721;SDS011;32455;43.430;23.136;2023-05-07T03:32:03;8.77;;;6.35;;
46721;SDS011;32455;43.430;23.136;2023-05-07T03:34:49;12.63;;;7.05;;
46721;SDS011;32455;43.430;23.136;2023-05-07T03:37:34;12.52;;;7.47;;
46721;SDS011;32455;43.430;23.136;2023-05-07T03:40:20;10.60;;;7.07;;
46721;SDS011;32455;43.430;23.136;2023-05-07T03:43:04;11.57;;;7.55;;
46721;SDS011;32455;43.430;23.136;2023-05-07T03:45:50;10.55;;;6.45;;
46721;SDS011;32455;43.430;23.136;2023-05-07T03:48:35;13.25;;;6.93;;
46721;SDS011;32455;43.430;23.136;2023-05-07T03:51:20;10.40;;;7.07;;
46721;SDS011;32455;43.430;23.136;2023-05-07T03:54:05;9.18;;;7.10;;
46721;SDS011;32455;43.430;23.136;2023-05-07T03:56:50;11.27;;;6.03;;
46721;SDS011;32455;43.430;23.136;2023-05-07T03:59:35;6.50;;;5.43;;
46721;SDS011;32455;43.430;23.136;2023-05-07T04:02:21;8.15;;;5.95;;
46721;SDS011;32455;43.430;23.136;2023-05-07T04:05:06;6.32;;;5.32;;
46721;SDS011;32455;43.430;23.136;2023-05-07T04:07:52;8.32;;;5.68;;
46721;SDS011;32455;43.430;23.136;2023-05-07T04:10:37;9.18;;;5.65;;
46721;SDS011;32455;43.430;23.136;2023-05-07T04:13:23;5.97;;;4.97;;
46721;SDS011;32455;43.430;23.136;2023-05-07T04:16:08;6.13;;;5.50;;
46721;SDS011;32455;43.430;23.136;2023-05-07T04:18:53;6.32;;;5.25;;
46721;SDS011;32455;43.430;23.136;2023-05-07T04:21:39;7.30;;;5.60;;
46721;SDS011;32455;43.430;23.136;2023-05-07T04:24:24;7.00;;;5.05;;
46721;SDS011;32455;43.430;23.136;2023-05-07T04:27:10;5.70;;;5.03;;
46721;SDS011;32455;43.430;23.136;2023-05-07T04:29:55;8.57;;;5.30;;
46721;SDS011;32455;43.430;23.136;2023-05-07T04:32:40;5.75;;;5.10;;
46721;SDS011;32455;43.430;23.136;2023-05-07T04:35:26;5.82;;;5.30;;
46721;SDS011;32455;43.430;23.136;2023-05-07T04:38:11;7.35;;;5.60;;
46721;SDS011;32455;43.430;23.136;2023-05-07T04:40:57;5.25;;;4.68;;
46721;SDS011;32455;43.430;23.136;2023-05-07T04:43:47;8.80;;;4.85;;
46721;SDS011;32455;43.430;23.136;2023-05-07T04:46:33;6.28;;;5.13;;
46721;SDS011;32455;43.430;23.136;2023-05-07T04:49:18;6.75;;;5.25;;
46721;SDS011;32455;43.430;23.136;2023-05-07T04:52:03;5.97;;;5.43;;
46721;SDS011;32455;43.430;23.136;2023-05-07T04:54:49;7.15;;;5.30;;
46721;SDS011;32455;43.430;23.136;2023-05-07T04:57:34;6.90;;;4.55;;
46721;SDS011;32455;43.430;23.136;2023-05-07T05:00:20;6.78;;;4.75;;
46721;SDS011;32455;43.430;23.136;2023-05-07T05:03:06;5.40;;;4.75;;
46721;SDS011;32455;43.430;23.136;2023-05-07T05:05:51;7.70;;;5.35;;
46721;SDS011;32455;43.430;23.136;2023-05-07T05:08:37;10.68;;;4.82;;
46721;SDS011;32455;43.430;23.136;2023-05-07T05:11:22;6.93;;;5.10;;
46721;SDS011;32455;43.430;23.136;2023-05-07T05:14:08;7.25;;;4.95;;
46721;SDS011;32455;43.430;23.136;2023-05-07T05:16:53;6.30;;;5.05;;
46721;SDS011;32455;43.430;23.136;2023-05-07T05:19:37;6.30;;;5.70;;
46721;SDS011;32455;43.430;23.136;2023-05-07T05:22:22;9.20;;;5.38;;
46721;SDS011;32455;43.430;23.136;2023-05-07T05:25:07;8.48;;;5.35;;
46721;SDS011;32455;43.430;23.136;2023-05-07T05:27:53;6.95;;;5.55;;
46721;SDS011;32455;43.430;23.136;2023-05-07T05:30:39;6.40;;;5.28;;
46721;SDS011;32455;43.430;23.136;2023-05-07T05:33:25;7.80;;;5.70;;
46721;SDS011;32455;43.430;23.136;2023-05-07T05:36:11;7.68;;;5.97;;
46721;SDS011;32455;43.430;23.136;2023-05-07T05:38:57;7.05;;;5.45;;
46721;SDS011;32455;43.430;23.136;2023-05-07T05:41:42;8.00;;;4.60;;
46721;SDS011;32455;43.430;23.136;2023-05-07T05:44:28;5.90;;;4.80;;
46721;SDS011;32455;43.430;23.136;2023-05-07T05:47:13;7.28;;;5.15;;
46721;SDS011;32455;43.430;23.136;2023-05-07T05:49:59;7.38;;;5.10;;
46721;SDS011;32455;43.430;23.136;2023-05-07T05:52:44;6.25;;;4.75;;
46721;SDS011;32455;43.430;23.136;2023-05-07T05:55:30;6.43;;;4.85;;
46721;SDS011;32455;43.430;23.136;2023-05-07T05:58:17;6.03;;;4.85;;
46721;SDS011;32455;43.430;23.136;2023-05-07T06:01:02;6.38;;;5.18;;
46721;SDS011;32455;43.430;23.136;2023-05-07T06:03:48;9.85;;;4.70;;
46721;SDS011;32455;43.430;23.136;2023-05-07T06:06:33;8.27;;;4.93;;
46721;SDS011;32455;43.430;23.136;2023-05-07T06:09:19;7.60;;;4.47;;
46721;SDS011;32455;43.430;23.136;2023-05-07T06:12:05;5.97;;;4.53;;
46721;SDS011;32455;43.430;23.136;2023-05-07T06:14:50;5.20;;;4.10;;
46721;SDS011;32455;43.430;23.136;2023-05-07T06:17:35;9.95;;;4.85;;
46721;SDS011;32455;43.430;23.136;2023-05-07T06:20:21;11.68;;;4.45;;
46721;SDS011;32455;43.430;23.136;2023-05-07T06:23:06;4.70;;;4.25;;
46721;SDS011;32455;43.430;23.136;2023-05-07T06:25:51;4.65;;;4.25;;
46721;SDS011;32455;43.430;23.136;2023-05-07T06:28:36;7.60;;;5.60;;
46721;SDS011;32455;43.430;23.136;2023-05-07T06:31:22;8.38;;;5.43;;
46721;SDS011;32455;43.430;23.136;2023-05-07T06:34:07;4.90;;;4.38;;
46721;SDS011;32455;43.430;23.136;2023-05-07T06:36:52;5.10;;;4.55;;
46721;SDS011;32455;43.430;23.136;2023-05-07T06:39:37;8.52;;;6.13;;
46721;SDS011;32455;43.430;23.136;2023-05-07T06:42:22;5.10;;;4.60;;
46721;SDS011;32455;43.430;23.136;2023-05-07T06:45:08;8.25;;;4.53;;
46721;SDS011;32455;43.430;23.136;2023-05-07T06:47:53;7.68;;;4.70;;
46721;SDS011;32455;43.430;23.136;2023-05-07T06:50:39;6.35;;;4.10;;
46721;SDS011;32455;43.430;23.136;2023-05-07T06:53:24;8.32;;;4.38;;
46721;SDS011;32455;43.430;23.136;2023-05-07T06:56:10;8.85;;;5.25;;
46721;SDS011;32455;43.430;23.136;2023-05-07T06:58:54;6.82;;;4.95;;
46721;SDS011;32455;43.430;23.136;2023-05-07T07:01:39;8.52;;;4.32;;
46721;SDS011;32455;43.430;23.136;2023-05-07T07:04:25;5.65;;;4.10;;
46721;SDS011;32455;43.430;23.136;2023-05-07T07:07:10;4.93;;;4.43;;
46721;SDS011;32455;43.430;23.136;2023-05-07T07:09:56;7.70;;;4.43;;
46721;SDS011;32455;43.430;23.136;2023-05-07T07:12:41;5.07;;;3.88;;
46721;SDS011;32455;43.430;23.136;2023-05-07T07:15:28;5.68;;;4.32;;
46721;SDS011;32455;43.430;23.136;2023-05-07T07:18:13;6.32;;;4.53;;
46721;SDS011;32455;43.430;23.136;2023-05-07T07:20:59;5.10;;;3.90;;
46721;SDS011;32455;43.430;23.136;2023-05-07T07:23:44;8.27;;;3.67;;
46721;SDS011;32455;43.430;23.136;2023-05-07T07:26:29;5.22;;;3.97;;
46721;SDS011;32455;43.430;23.136;2023-05-07T07:29:14;8.32;;;4.10;;
46721;SDS011;32455;43.430;23.136;2023-05-07T07:32:00;5.80;;;3.47;;
46721;SDS011;32455;43.430;23.136;2023-05-07T07:34:47;5.78;;;3.53;;
46721;SDS011;32455;43.430;23.136;2023-05-07T07:37:32;5.20;;;3.72;;
46721;SDS011;32455;43.430;23.136;2023-05-07T07:40:18;5.35;;;4.30;;
46721;SDS011;32455;43.430;23.136;2023-05-07T07:43:03;7.18;;;3.55;;
46721;SDS011;32455;43.430;23.136;2023-05-07T07:45:50;4.95;;;3.65;;
46721;SDS011;32455;43.430;23.136;2023-05-07T07:48:35;9.95;;;4.43;;
46721;SDS011;32455;43.430;23.136;2023-05-07T07:51:21;5.22;;;3.75;;
46721;SDS011;32455;43.430;23.136;2023-05-07T07:54:06;4.40;;;3.90;;
46721;SDS011;32455;43.430;23.136;2023-05-07T07:56:51;4.57;;;3.90;;
46721;SDS011;32455;43.430;23.136;2023-05-07T07:59:36;6.53;;;3.80;;
46721;SDS011;32455;43.430;23.136;2023-05-07T08:02:22;6.75;;;4.15;;
46721;SDS011;32455;43.430;23.136;2023-05-07T08:05:08;5.85;;;3.75;;
46721;SDS011;32455;43.430;23.136;2023-05-07T08:07:53;5.10;;;3.90;;
46721;SDS011;32455;43.430;23.136;2023-05-07T08:10:39;6.90;;;4.15;;
46721;SDS011;32455;43.430;23.136;2023-05-07T08:13:24;6.35;;;4.55;;
46721;SDS011;32455;43.430;23.136;2023-05-07T08:16:10;6.22;;;3.80;;
46721;SDS011;32455;43.430;23.136;2023-05-07T08:18:55;5.80;;;3.92;;
46721;SDS011;32455;43.430;23.136;2023-05-07T08:21:40;6.68;;;3.90;;
46721;SDS011;32455;43.430;23.136;2023-05-07T08:24:25;7.30;;;3.90;;
46721;SDS011;32455;43.430;23.136;2023-05-07T08:27:10;7.93;;;3.90;;
46721;SDS011;32455;43.430;23.136;2023-05-07T08:29:56;4.80;;;4.20;;
46721;SDS011;32455;43.430;23.136;2023-05-07T08:32:41;4.25;;;3.70;;
46721;SDS011;32455;43.430;23.136;2023-05-07T08:35:26;4.60;;;3.42;;
46721;SDS011;32455;43.430;23.136;2023-05-07T08:38:11;4.88;;;3.88;;
46721;SDS011;32455;43.430;23.136;2023-05-07T08:40:57;6.75;;;4.13;;
46721;SDS011;32455;43.430;23.136;2023-05-07T08:43:43;3.60;;;3.30;;
46721;SDS011;32455;43.430;23.136;2023-05-07T08:46:32;10.00;;;3.50;;
46721;SDS011;32455;43.430;23.136;2023-05-07T08:49:18;4.65;;;3.40;;
46721;SDS011;32455;43.430;23.136;2023-05-07T08:52:05;5.80;;;3.65;;
46721;SDS011;32455;43.430;23.136;2023-05-07T08:54:50;6.28;;;3.58;;
46721;SDS011;32455;43.430;23.136;2023-05-07T08:57:35;7.95;;;4.00;;
46721;SDS011;32455;43.430;23.136;2023-05-07T09:00:21;5.22;;;3.30;;
46721;SDS011;32455;43.430;23.136;2023-05-07T09:03:06;6.13;;;3.22;;
46721;SDS011;32455;43.430;23.136;2023-05-07T09:05:51;9.75;;;3.55;;
46721;SDS011;32455;43.430;23.136;2023-05-07T09:08:37;3.20;;;2.97;;
46721;SDS011;32455;43.430;23.136;2023-05-07T09:11:22;4.75;;;3.50;;
46721;SDS011;32455;43.430;23.136;2023-05-07T09:14:08;5.18;;;3.83;;
46721;SDS011;32455;43.430;23.136;2023-05-07T09:16:54;6.80;;;3.22;;
46721;SDS011;32455;43.430;23.136;2023-05-07T09:19:39;4.53;;;3.33;;
46721;SDS011;32455;43.430;23.136;2023-05-07T09:22:24;9.05;;;3.60;;
46721;SDS011;32455;43.430;23.136;2023-05-07T09:25:10;4.13;;;3.15;;
46721;SDS011;32455;43.430;23.136;2023-05-07T09:27:55;7.32;;;3.35;;
46721;SDS011;32455;43.430;23.136;2023-05-07T09:30:41;5.45;;;3.25;;
46721;SDS011;32455;43.430;23.136;2023-05-07T09:33:27;5.68;;;3.35;;
46721;SDS011;32455;43.430;23.136;2023-05-07T09:36:13;5.80;;;3.55;;
46721;SDS011;32455;43.430;23.136;2023-05-07T09:39:02;4.13;;;3.25;;
46721;SDS011;32455;43.430;23.136;2023-05-07T09:41:47;7.00;;;3.30;;
46721;SDS011;32455;43.430;23.136;2023-05-07T09:44:39;9.27;;;3.22;;
46721;SDS011;32455;43.430;23.136;2023-05-07T09:47:25;5.75;;;2.90;;
46721;SDS011;32455;43.430;23.136;2023-05-07T09:50:17;8.75;;;3.25;;
46721;SDS011;32455;43.430;23.136;2023-05-07T09:53:04;4.47;;;3.30;;
46721;SDS011;32455;43.430;23.136;2023-05-07T09:55:50;5.90;;;2.83;;
46721;SDS011;32455;43.430;23.136;2023-05-07T09:58:36;3.83;;;2.80;;
46721;SDS011;32455;43.430;23.136;2023-05-07T10:01:24;5.93;;;2.92;;
46721;SDS011;32455;43.430;23.136;2023-05-07T10:04:10;4.00;;;2.78;;
46721;SDS011;32455;43.430;23.136;2023-05-07T10:06:57;8.32;;;2.80;;
46721;SDS011;32455;43.430;23.136;2023-05-07T10:09:43;4.85;;;2.97;;
46721;SDS011;32455;43.430;23.136;2023-05-07T10:12:31;6.38;;;2.90;;
46721;SDS011;32455;43.430;23.136;2023-05-07T10:15:22;4.30;;;2.85;;
46721;SDS011;32455;43.430;23.136;2023-05-07T10:18:09;5.55;;;2.67;;
46721;SDS011;32455;43.430;23.136;2023-05-07T10:20:57;4.45;;;2.70;;
46721;SDS011;32455;43.430;23.136;2023-05-07T10:23:57;6.30;;;2.90;;
46721;SDS011;32455;43.430;23.136;2023-05-07T10:26:46;4.50;;;2.90;;
46721;SDS011;32455;43.430;23.136;2023-05-07T10:32:45;4.47;;;2.90;;
46721;SDS011;32455;43.430;23.136;2023-05-07T10:35:39;4.20;;;2.55;;
46721;SDS011;32455;43.430;23.136;2023-05-07T10:38:28;3.83;;;2.80;;
46721;SDS011;32455;43.430;23.136;2023-05-07T10:41:14;5.03;;;2.55;;
46721;SDS011;32455;43.430;23.136;2023-05-07T10:44:01;5.18;;;2.67;;
46721;SDS011;32455;43.430;23.136;2023-05-07T10:47:02;2.72;;;2.47;;
46721;SDS011;32455;43.430;23.136;2023-05-07T10:53:18;7.90;;;3.20;;
46721;SDS011;32455;43.430;23.136;2023-05-07T10:56:23;4.10;;;2.95;;
46721;SDS011;32455;43.430;23.136;2023-05-07T11:02:05;3.40;;;3.05;;
46721;SDS011;32455;43.430;23.136;2023-05-07T11:05:38;8.20;;;2.80;;
46721;SDS011;32455;43.430;23.136;2023-05-07T11:08:05;3.45;;;3.10;;
46721;SDS011;32455;43.430;23.136;2023-05-07T11:10:55;5.10;;;2.60;;
46721;SDS011;32455;43.430;23.136;2023-05-07T11:13:45;3.35;;;2.80;;
46721;SDS011;32455;43.430;23.136;2023-05-07T11:16:31;5.38;;;2.67;;
46721;SDS011;32455;43.430;23.136;2023-05-07T11:19:18;5.68;;;2.38;;
46721;SDS011;32455;43.430;23.136;2023-05-07T11:25:24;6.05;;;2.63;;
46721;SDS011;32455;43.430;23.136;2023-05-07T11:28:10;5.10;;;2.78;;
46721;SDS011;32455;43.430;23.136;2023-05-07T11:30:54;5.95;;;2.38;;
46721;SDS011;32455;43.430;23.136;2023-05-07T11:33:41;2.70;;;2.28;;
46721;SDS011;32455;43.430;23.136;2023-05-07T11:36:30;4.20;;;2.60;;
46721;SDS011;32455;43.430;23.136;2023-05-07T11:39:24;3.38;;;2.50;;
46721;SDS011;32455;43.430;23.136;2023-05-07T11:42:27;5.68;;;2.38;;
46721;SDS011;32455;43.430;23.136;2023-05-07T11:45:22;6.18;;;2.75;;
46721;SDS011;32455;43.430;23.136;2023-05-07T11:48:09;2.50;;;2.22;;
46721;SDS011;32455;43.430;23.136;2023-05-07T11:51:01;5.35;;;2.22;;
46721;SDS011;32455;43.430;23.136;2023-05-07T11:53:48;2.80;;;2.40;;
46721;SDS011;32455;43.430;23.136;2023-05-07T11:56:36;4.30;;;2.72;;
46721;SDS011;32455;43.430;23.136;2023-05-07T11:59:21;3.35;;;2.67;;
46721;SDS011;32455;43.430;23.136;2023-05-07T12:02:06;2.90;;;2.42;;
46721;SDS011;32455;43.430;23.136;2023-05-07T12:04:52;4.10;;;2.58;;
46721;SDS011;32455;43.430;23.136;2023-05-07T12:07:38;3.00;;;2.65;;
46721;SDS011;32455;43.430;23.136;2023-05-07T12:10:23;5.82;;;2.20;;
46721;SDS011;32455;43.430;23.136;2023-05-07T12:16:05;3.90;;;2.50;;
46721;SDS011;32455;43.430;23.136;2023-05-07T12:18:52;2.70;;;2.38;;
46721;SDS011;32455;43.430;23.136;2023-05-07T12:21:40;3.65;;;2.40;;
46721;SDS011;32455;43.430;23.136;2023-05-07T12:24:25;6.20;;;2.10;;
46721;SDS011;32455;43.430;23.136;2023-05-07T12:27:11;4.65;;;2.20;;
46721;SDS011;32455;43.430;23.136;2023-05-07T12:29:58;3.97;;;2.00;;
46721;SDS011;32455;43.430;23.136;2023-05-07T12:32:44;2.25;;;2.00;;
46721;SDS011;32455;43.430;23.136;2023-05-07T12:35:31;3.92;;;1.95;;
46721;SDS011;32455;43.430;23.136;2023-05-07T12:38:17;3.92;;;2.10;;
46721;SDS011;32455;43.430;23.136;2023-05-07T12:41:05;2.47;;;2.28;;
46721;SDS011;32455;43.430;23.136;2023-05-07T12:43:51;4.32;;;2.50;;
46721;SDS011;32455;43.430;23.136;2023-05-07T12:46:41;7.28;;;2.15;;
46721;SDS011;32455;43.430;23.136;2023-05-07T12:49:27;3.25;;;2.40;;
46721;SDS011;32455;43.430;23.136;2023-05-07T12:52:13;4.25;;;2.63;;
46721;SDS011;32455;43.430;23.136;2023-05-07T12:55:04;2.72;;;2.05;;
46721;SDS011;32455;43.430;23.136;2023-05-07T12:57:51;7.15;;;2.22;;
46721;SDS011;32455;43.430;23.136;2023-05-07T13:00:38;2.83;;;2.10;;
46721;SDS011;32455;43.430;23.136;2023-05-07T13:03:29;4.75;;;2.55;;
46721;SDS011;32455;43.430;23.136;2023-05-07T13:06:18;3.05;;;2.30;;
46721;SDS011;32455;43.430;23.136;2023-05-07T13:09:04;2.78;;;2.10;;
46721;SDS011;32455;43.430;23.136;2023-05-07T13:11:49;3.78;;;2.05;;
46721;SDS011;32455;43.430;23.136;2023-05-07T13:14:34;3.25;;;2.20;;
46721;SDS011;32455;43.430;23.136;2023-05-07T13:17:20;7.05;;;1.98;;
46721;SDS011;32455;43.430;23.136;2023-05-07T13:20:06;3.47;;;2.10;;
46721;SDS011;32455;43.430;23.136;2023-05-07T13:22:53;4.28;;;2.22;;
46721;SDS011;32455;43.430;23.136;2023-05-07T13:25:39;5.85;;;2.05;;
46721;SDS011;32455;43.430;23.136;2023-05-07T13:28:25;3.17;;;2.00;;
46721;SDS011;32455;43.430;23.136;2023-05-07T13:31:10;5.63;;;2.17;;
46721;SDS011;32455;43.430;23.136;2023-05-07T13:33:56;4.20;;;2.28;;
46721;SDS011;32455;43.430;23.136;2023-05-07T13:36:41;5.20;;;2.08;;
46721;SDS011;32455;43.430;23.136;2023-05-07T13:39:26;2.30;;;2.00;;
46721;SDS011;32455;43.430;23.136;2023-05-07T13:42:12;4.65;;;2.10;;
46721;SDS011;32455;43.430;23.136;2023-05-07T13:44:57;5.97;;;2.03;;
46721;SDS011;32455;43.430;23.136;2023-05-07T13:47:42;5.60;;;1.90;;
46721;SDS011;32455;43.430;23.136;2023-05-07T13:50:33;4.50;;;2.13;;
46721;SDS011;32455;43.430;23.136;2023-05-07T13:53:19;3.08;;;2.15;;
46721;SDS011;32455;43.430;23.136;2023-05-07T13:56:04;4.88;;;2.28;;
46721;SDS011;32455;43.430;23.136;2023-05-07T13:58:50;2.95;;;1.88;;
46721;SDS011;32455;43.430;23.136;2023-05-07T14:01:34;4.85;;;2.58;;
46721;SDS011;32455;43.430;23.136;2023-05-07T14:04:19;5.18;;;2.50;;
46721;SDS011;32455;43.430;23.136;2023-05-07T14:07:04;3.80;;;2.10;;
46721;SDS011;32455;43.430;23.136;2023-05-07T14:09:52;5.38;;;2.13;;
46721;SDS011;32455;43.430;23.136;2023-05-07T14:12:37;3.40;;;2.13;;
46721;SDS011;32455;43.430;23.136;2023-05-07T14:15:23;5.70;;;2.60;;
46721;SDS011;32455;43.430;23.136;2023-05-07T14:18:08;6.93;;;2.45;;
46721;SDS011;32455;43.430;23.136;2023-05-07T14:20:53;4.55;;;2.00;;
46721;SDS011;32455;43.430;23.136;2023-05-07T14:23:38;3.90;;;2.22;;
46721;SDS011;32455;43.430;23.136;2023-05-07T14:26:24;3.90;;;1.83;;
46721;SDS011;32455;43.430;23.136;2023-05-07T14:29:11;4.90;;;2.58;;
46721;SDS011;32455;43.430;23.136;2023-05-07T14:31:57;3.25;;;2.45;;
46721;SDS011;32455;43.430;23.136;2023-05-07T14:34:42;4.82;;;2.00;;
46721;SDS011;32455;43.430;23.136;2023-05-07T14:37:28;2.05;;;1.58;;
46721;SDS011;32455;43.430;23.136;2023-05-07T14:40:14;4.20;;;2.05;;
46721;SDS011;32455;43.430;23.136;2023-05-07T14:42:59;5.00;;;2.30;;
46721;SDS011;32455;43.430;23.136;2023-05-07T14:45:45;2.88;;;1.70;;
46721;SDS011;32455;43.430;23.136;2023-05-07T14:48:33;5.55;;;2.15;;
46721;SDS011;32455;43.430;23.136;2023-05-07T14:51:21;4.60;;;2.10;;
46721;SDS011;32455;43.430;23.136;2023-05-07T14:54:06;5.18;;;2.03;;
46721;SDS011;32455;43.430;23.136;2023-05-07T14:56:51;4.75;;;1.83;;
46721;SDS011;32455;43.430;23.136;2023-05-07T14:59:37;1.85;;;1.73;;
46721;SDS011;32455;43.430;23.136;2023-05-07T15:02:23;4.68;;;1.83;;
46721;SDS011;32455;43.430;23.136;2023-05-07T15:05:08;6.22;;;2.08;;
46721;SDS011;32455;43.430;23.136;2023-05-07T15:07:54;6.00;;;2.10;;
46721;SDS011;32455;43.430;23.136;2023-05-07T15:10:40;8.10;;;2.00;;
46721;SDS011;32455;43.430;23.136;2023-05-07T15:13:26;5.32;;;2.08;;
46721;SDS011;32455;43.430;23.136;2023-05-07T15:16:11;3.63;;;2.10;;
46721;SDS011;32455;43.430;23.136;2023-05-07T15:18:57;4.15;;;2.00;;
46721;SDS011;32455;43.430;23.136;2023-05-07T15:21:43;5.97;;;2.40;;
46721;SDS011;32455;43.430;23.136;2023-05-07T15:24:29;3.80;;;1.92;;
46721;SDS011;32455;43.430;23.136;2023-05-07T15:27:15;3.50;;;1.95;;
46721;SDS011;32455;43.430;23.136;2023-05-07T15:30:01;3.85;;;1.95;;
46721;SDS011;32455;43.430;23.136;2023-05-07T15:32:48;3.03;;;2.20;;
46721;SDS011;32455;43.430;23.136;2023-05-07T15:35:33;3.80;;;2.30;;
46721;SDS011;32455;43.430;23.136;2023-05-07T15:38:18;6.10;;;2.30;;
46721;SDS011;32455;43.430;23.136;2023-05-07T15:41:04;3.05;;;2.45;;
46721;SDS011;32455;43.430;23.136;2023-05-07T15:43:50;4.22;;;2.42;;
46721;SDS011;32455;43.430;23.136;2023-05-07T15:46:36;3.75;;;2.58;;
46721;SDS011;32455;43.430;23.136;2023-05-07T15:49:21;5.07;;;2.33;;
46721;SDS011;32455;43.430;23.136;2023-05-07T15:52:06;7.35;;;4.45;;
46721;SDS011;32455;43.430;23.136;2023-05-07T15:54:51;5.57;;;2.53;;
46721;SDS011;32455;43.430;23.136;2023-05-07T15:57:37;5.72;;;2.13;;
46721;SDS011;32455;43.430;23.136;2023-05-07T16:00:22;3.65;;;2.33;;
46721;SDS011;32455;43.430;23.136;2023-05-07T16:03:10;2.85;;;2.10;;
46721;SDS011;32455;43.430;23.136;2023-05-07T16:05:56;6.20;;;2.33;;
46721;SDS011;32455;43.430;23.136;2023-05-07T16:08:41;6.28;;;2.22;;
46721;SDS011;32455;43.430;23.136;2023-05-07T16:11:27;5.50;;;2.38;;
46721;SDS011;32455;43.430;23.136;2023-05-07T16:14:17;3.65;;;2.30;;
46721;SDS011;32455;43.430;23.136;2023-05-07T16:17:03;2.88;;;2.50;;
46721;SDS011;32455;43.430;23.136;2023-05-07T16:19:50;4.28;;;2.58;;
46721;SDS011;32455;43.430;23.136;2023-05-07T16:22:35;7.55;;;3.80;;
46721;SDS011;32455;43.430;23.136;2023-05-07T16:25:21;4.57;;;3.00;;
46721;SDS011;32455;43.430;23.136;2023-05-07T16:28:06;5.07;;;2.60;;
46721;SDS011;32455;43.430;23.136;2023-05-07T16:30:52;4.68;;;3.28;;
46721;SDS011;32455;43.430;23.136;2023-05-07T16:33:37;4.80;;;2.70;;
46721;SDS011;32455;43.430;23.136;2023-05-07T16:36:26;5.93;;;3.10;;
46721;SDS011;32455;43.430;23.136;2023-05-07T16:39:12;4.22;;;2.30;;
46721;SDS011;32455;43.430;23.136;2023-05-07T16:41:58;3.13;;;2.83;;